Terminal Aerodrome Forecast
Issued by NWS Goodland, KS

Home | Current Version | Previous Version | Text Only | Print | Product List | Glossary On
Versions: 1 2 3 4 5 6 7 8 9 10 11 12 13 14
458
FTUS43 KGLD 211149
TAFGLD
TAF
KGLD 211149Z 2112/2212 26007KT P6SM SKC
     FM212100 20006KT P6SM FEW100
     FM220200 18006KT P6SM VCTS SCT100CB
     FM220500 32008KT P6SM FEW090 SCT200=

USA.gov is the U.S. government's official web portal to all federal, state and local government web resources and services.